createdAt,value
2022-12-25T00:01:08.799Z,1.20
2022-12-25T00:03:37.506Z,1.20
2022-12-25T00:06:04.949Z,1.40
2022-12-25T00:08:31.987Z,1.30
2022-12-25T00:11:03.890Z,1.40
2022-12-25T00:13:30.911Z,1.40
2022-12-25T00:16:00.912Z,1.30
2022-12-25T00:18:27.985Z,1.00
2022-12-25T00:21:03.159Z,1.30
2022-12-25T00:23:30.264Z,1.20
2022-12-25T00:25:57.292Z,1.10
2022-12-25T00:28:24.452Z,1.00
2022-12-25T00:30:51.708Z,1.20
2022-12-25T00:33:18.740Z,1.10
2022-12-25T00:35:45.733Z,1.40
2022-12-25T00:38:12.675Z,1.50
2022-12-25T00:40:44.322Z,1.00
2022-12-25T00:43:11.298Z,1.00
2022-12-25T00:45:38.320Z,1.10
2022-12-25T00:48:05.448Z,1.20
2022-12-25T00:50:32.466Z,1.40
2022-12-25T00:52:59.461Z,1.10
2022-12-25T00:55:26.277Z,1.20
2022-12-25T00:57:53.221Z,1.30
2022-12-25T01:00:20.248Z,1.50
2022-12-25T01:02:47.457Z,1.70
2022-12-25T01:05:14.751Z,1.50
2022-12-25T01:07:41.701Z,1.40
2022-12-25T01:10:22.982Z,1.60
2022-12-25T01:12:50.441Z,1.50
2022-12-25T01:15:17.379Z,1.70
2022-12-25T01:17:44.618Z,2.10
2022-12-25T01:20:12.541Z,1.70
2022-12-25T01:22:39.443Z,1.60
2022-12-25T01:25:07.311Z,1.70
2022-12-25T01:27:34.187Z,1.90
2022-12-25T01:30:01.213Z,2.40
2022-12-25T01:32:31.928Z,2.50
2022-12-25T01:34:58.889Z,1.70
2022-12-25T01:37:25.816Z,1.90
2022-12-25T01:39:52.649Z,1.40
2022-12-25T01:42:20.935Z,1.20
2022-12-25T01:44:47.806Z,2.20
2022-12-25T01:47:15.431Z,2.40
2022-12-25T01:49:43.323Z,1.90
2022-12-25T01:52:12.883Z,1.70
2022-12-25T01:54:45.402Z,1.70
2022-12-25T01:57:16.636Z,1.70
2022-12-25T01:59:43.599Z,1.80
2022-12-25T02:02:10.755Z,2.00
2022-12-25T02:04:41.676Z,2.00
2022-12-25T02:07:16.869Z,2.50
2022-12-25T02:09:44.669Z,2.60
2022-12-25T02:12:22.987Z,2.10
2022-12-25T02:14:51.151Z,2.30
2022-12-25T02:17:36.240Z,2.40
2022-12-25T02:20:21.683Z,1.90
2022-12-25T02:23:16.404Z,2.10
2022-12-25T02:25:58.602Z,2.00
2022-12-25T02:28:45.997Z,2.10
2022-12-25T02:31:27.898Z,1.90
2022-12-25T02:34:05.414Z,2.00
2022-12-25T02:36:44.852Z,1.90
2022-12-25T02:39:53.383Z,1.90
2022-12-25T02:42:53.942Z,2.50
2022-12-25T02:45:51.321Z,2.70
2022-12-25T02:48:40.546Z,2.80
2022-12-25T02:51:28.769Z,1.80
2022-12-25T02:54:14.987Z,2.10
2022-12-25T02:57:01.368Z,1.40
2022-12-25T02:59:47.049Z,1.20
2022-12-25T03:02:33.930Z,1.30
2022-12-25T03:05:20.880Z,1.40
2022-12-25T03:07:47.850Z,1.40
2022-12-25T03:10:33.722Z,1.60
2022-12-25T03:13:06.741Z,1.30
2022-12-25T03:15:52.911Z,1.60
2022-12-25T03:18:22.482Z,2.10
2022-12-25T03:21:08.312Z,1.70
2022-12-25T03:23:54.322Z,1.60
2022-12-25T03:26:40.163Z,1.70
2022-12-25T03:29:07.215Z,1.70
2022-12-25T03:31:50.673Z,2.00
2022-12-25T03:34:43.898Z,1.80
2022-12-25T03:37:38.292Z,1.50
2022-12-25T03:40:40.875Z,1.80
2022-12-25T03:43:56.259Z,1.70
2022-12-25T03:46:41.996Z,1.70
2022-12-25T03:49:36.351Z,1.60
2022-12-25T03:52:22.418Z,2.00
2022-12-25T03:55:08.317Z,2.10
2022-12-25T03:57:56.352Z,2.10
2022-12-25T04:00:41.952Z,1.90
2022-12-25T04:03:27.860Z,1.40
2022-12-25T04:06:13.640Z,1.60
2022-12-25T04:08:59.498Z,1.70
2022-12-25T04:11:45.282Z,1.70
2022-12-25T04:14:30.890Z,1.40
2022-12-25T04:17:21.425Z,1.50
2022-12-25T04:20:07.196Z,1.40
2022-12-25T04:22:52.928Z,1.20
2022-12-25T04:25:38.715Z,1.40
2022-12-25T04:28:24.709Z,1.10
2022-12-25T04:31:10.957Z,1.00
2022-12-25T04:33:56.844Z,1.00
2022-12-25T04:36:26.750Z,1.50
2022-12-25T04:38:56.014Z,1.10
2022-12-25T04:41:23.055Z,1.60
2022-12-25T04:43:49.998Z,1.30
2022-12-25T04:46:17.072Z,1.30
2022-12-25T04:48:44.095Z,1.50
2022-12-25T04:51:18.953Z,1.40
2022-12-25T04:53:46.481Z,1.40
2022-12-25T04:56:13.869Z,1.20
2022-12-25T04:58:41.501Z,1.50
2022-12-25T05:01:11.273Z,3.10
2022-12-25T05:03:38.416Z,2.80
2022-12-25T05:06:06.123Z,2.20
2022-12-25T09:18:47.577Z,2.60
2022-12-25T09:21:15.749Z,3.50
2022-12-25T09:23:45.179Z,4.50
2022-12-25T09:26:15.200Z,2.20
2022-12-25T09:28:50.235Z,1.80
2022-12-25T09:31:22.110Z,2.00
2022-12-25T09:33:52.742Z,2.70
2022-12-25T09:36:22.084Z,1.80
2022-12-25T09:38:49.363Z,2.00
2022-12-25T09:41:35.388Z,2.40
2022-12-25T09:44:17.574Z,1.70
2022-12-25T09:46:47.733Z,1.90
2022-12-25T09:49:31.346Z,2.00
2022-12-25T09:52:02.256Z,1.80
2022-12-25T09:54:49.286Z,2.30
2022-12-25T09:57:16.383Z,2.20
2022-12-25T09:59:44.069Z,2.30
2022-12-25T10:02:29.749Z,2.20
2022-12-25T10:05:48.043Z,2.30
2022-12-25T10:08:33.463Z,2.00
2022-12-25T10:11:17.892Z,1.80
2022-12-25T10:13:59.907Z,2.30
2022-12-25T10:16:47.714Z,1.80
2022-12-25T10:19:24.832Z,2.20
2022-12-25T10:21:56.729Z,2.30
2022-12-25T10:24:41.195Z,2.50
2022-12-25T10:27:14.687Z,1.90
2022-12-25T10:29:41.519Z,3.20
2022-12-25T10:32:12.534Z,2.50
2022-12-25T10:34:40.528Z,2.90
2022-12-25T10:37:09.579Z,2.90
2022-12-25T10:39:40.932Z,3.60
2022-12-25T10:42:47.533Z,3.80
2022-12-25T10:45:14.413Z,3.20
2022-12-25T10:47:44.234Z,2.90
2022-12-25T10:50:24.870Z,4.00
2022-12-25T10:52:56.524Z,2.90
2022-12-25T10:55:28.781Z,4.00
2022-12-25T10:57:58.011Z,10.00
2022-12-25T11:00:27.238Z,4.00
2022-12-25T11:02:54.356Z,4.90
2022-12-25T11:05:28.373Z,2.70
2022-12-25T11:07:59.559Z,2.90
2022-12-25T11:10:37.806Z,3.70
2022-12-25T11:13:08.668Z,3.70
2022-12-25T11:15:42.902Z,2.00
2022-12-25T11:18:23.829Z,2.80
2022-12-25T11:20:55.519Z,2.00
2022-12-25T11:23:25.247Z,3.20
2022-12-25T11:26:09.474Z,1.90
2022-12-25T11:28:38.118Z,2.10
2022-12-25T11:31:08.935Z,2.70
2022-12-25T11:33:39.355Z,2.20
2022-12-25T11:36:15.989Z,2.20
2022-12-25T11:38:51.114Z,2.40
2022-12-25T11:41:25.241Z,2.00
2022-12-25T11:44:02.161Z,2.20
2022-12-25T11:46:31.543Z,2.40
2022-12-25T11:49:01.877Z,2.70
2022-12-25T11:51:31.970Z,2.30
2022-12-25T11:54:28.185Z,2.50
2022-12-25T11:56:56.058Z,2.60
2022-12-25T11:59:26.144Z,2.40
2022-12-25T12:01:54.797Z,3.00
2022-12-25T12:04:29.941Z,2.60
2022-12-25T12:07:13.018Z,2.90
2022-12-25T12:09:43.010Z,2.70
2022-12-25T12:12:12.842Z,3.00
2022-12-25T12:14:48.893Z,2.90
2022-12-25T12:17:16.904Z,2.50
2022-12-25T12:19:43.905Z,2.80
2022-12-25T12:22:17.883Z,2.70
2022-12-25T12:24:50.010Z,3.00
2022-12-25T12:27:46.460Z,3.30
2022-12-25T12:30:25.757Z,3.80
2022-12-25T12:32:54.118Z,3.80
2022-12-25T12:35:24.311Z,4.10
2022-12-25T12:38:24.377Z,4.40
2022-12-25T12:40:56.158Z,4.00
2022-12-25T12:43:30.952Z,4.00
2022-12-25T12:46:16.771Z,4.20
2022-12-25T12:48:45.839Z,3.30
2022-12-25T12:51:14.745Z,4.00
2022-12-25T12:53:42.831Z,3.70
2022-12-25T12:56:11.737Z,4.50
2022-12-25T12:58:45.235Z,6.70
2022-12-25T13:01:17.293Z,14.00
2022-12-25T13:03:49.485Z,9.60
2022-12-25T13:06:31.143Z,14.80
2022-12-25T13:09:17.145Z,9.70
2022-12-25T13:11:44.104Z,4.90
2022-12-25T13:14:16.642Z,5.50
2022-12-25T13:16:46.961Z,4.60
2022-12-25T13:19:24.775Z,4.80
2022-12-25T13:21:56.154Z,5.70
2022-12-25T13:24:24.909Z,6.00
2022-12-25T13:26:51.919Z,5.90
2022-12-25T13:29:23.044Z,5.70
2022-12-25T13:31:49.944Z,4.80
2022-12-25T13:34:32.204Z,4.20
2022-12-25T13:37:19.073Z,3.70
2022-12-25T13:39:54.779Z,4.70
2022-12-25T13:42:23.364Z,4.30
2022-12-25T13:44:58.701Z,5.20
2022-12-25T13:47:26.671Z,5.90
2022-12-25T13:49:54.886Z,8.20
2022-12-25T13:52:32.104Z,8.10
2022-12-25T13:55:06.305Z,7.40
2022-12-25T13:57:35.378Z,7.10
2022-12-25T14:00:02.558Z,6.50
2022-12-25T14:02:35.027Z,7.80
2022-12-25T14:05:02.549Z,5.90
2022-12-25T14:07:32.385Z,5.50
2022-12-25T14:10:03.375Z,6.50
2022-12-25T14:12:35.564Z,5.30
2022-12-25T14:15:05.115Z,6.60
2022-12-25T14:17:32.395Z,6.00
2022-12-25T14:20:08.611Z,7.10
2022-12-25T14:22:40.492Z,7.00
2022-12-25T14:25:14.449Z,9.20
2022-12-25T14:27:41.588Z,9.40
2022-12-25T14:30:12.958Z,9.20
2022-12-25T14:32:40.893Z,8.70
2022-12-25T14:35:10.259Z,12.60
2022-12-25T14:37:41.415Z,9.60
2022-12-25T14:40:30.958Z,9.30
2022-12-25T14:43:02.561Z,9.80
2022-12-25T14:45:36.213Z,10.40
2022-12-25T14:48:18.500Z,8.60
2022-12-25T14:51:05.872Z,9.70
2022-12-25T14:53:50.222Z,9.50
2022-12-25T14:56:20.699Z,9.70
2022-12-25T14:58:52.937Z,10.20
2022-12-25T15:01:22.478Z,10.70
2022-12-25T17:18:59.673Z,21.40
2022-12-25T17:21:35.841Z,22.60
2022-12-25T17:24:06.265Z,19.30
2022-12-25T17:26:33.724Z,20.70
2022-12-25T17:29:01.280Z,19.80
2022-12-25T17:31:28.618Z,19.90
2022-12-25T17:33:55.676Z,23.10
2022-12-25T17:36:22.859Z,25.50
2022-12-25T17:38:50.391Z,25.40
2022-12-25T17:41:18.080Z,24.30
2022-12-25T17:43:45.946Z,20.70
2022-12-25T17:46:32.735Z,20.50
2022-12-25T17:49:00.958Z,18.10
2022-12-25T17:51:28.968Z,17.80
2022-12-25T17:53:57.450Z,18.20
2022-12-25T17:56:24.700Z,17.80
2022-12-25T17:58:56.479Z,18.90
2022-12-25T18:01:24.047Z,20.00
2022-12-25T18:03:51.347Z,19.00
2022-12-25T18:06:21.080Z,19.60
2022-12-25T18:08:48.432Z,20.80
2022-12-25T18:11:23.809Z,23.40
2022-12-25T18:13:52.395Z,28.50
2022-12-25T18:16:22.799Z,28.00
2022-12-25T18:18:52.666Z,26.30
2022-12-25T18:21:22.299Z,28.20
2022-12-25T18:23:49.774Z,25.20
2022-12-25T18:26:16.713Z,26.20
2022-12-25T18:28:44.176Z,23.80
2022-12-25T18:31:13.473Z,20.60
2022-12-25T18:33:41.048Z,19.10
2022-12-25T18:36:09.603Z,19.10
2022-12-25T18:38:36.557Z,21.00
2022-12-25T18:41:05.242Z,21.40
2022-12-25T18:43:54.372Z,21.50
2022-12-25T18:46:22.635Z,21.50
2022-12-25T18:48:49.724Z,20.40
2022-12-25T18:51:16.771Z,19.80
2022-12-25T18:53:43.647Z,24.40
2022-12-25T18:56:12.838Z,25.50
2022-12-25T18:58:39.960Z,22.00
2022-12-25T19:01:18.749Z,21.90
2022-12-25T19:03:49.288Z,21.00
2022-12-25T19:06:27.235Z,20.80
2022-12-25T19:08:54.699Z,25.60
2022-12-25T19:11:21.832Z,40.70
2022-12-25T19:13:48.864Z,27.00
2022-12-25T19:16:16.905Z,25.80
2022-12-25T19:18:45.315Z,24.40
2022-12-25T19:21:12.369Z,24.20
2022-12-25T19:23:39.524Z,21.40
2022-12-25T19:26:07.571Z,22.80
2022-12-25T19:28:35.242Z,22.80
2022-12-25T19:31:03.974Z,23.70
2022-12-25T19:33:31.788Z,25.80
2022-12-25T19:41:59.809Z,23.80
2022-12-25T19:44:26.956Z,24.30
2022-12-25T19:46:54.002Z,26.10
2022-12-25T19:49:21.043Z,26.30
2022-12-25T19:51:48.810Z,28.10
2022-12-25T19:54:16.387Z,27.50
2022-12-25T19:56:43.644Z,28.30
2022-12-25T19:59:11.215Z,27.30
2022-12-25T20:01:39.227Z,24.80
2022-12-25T20:04:10.188Z,25.90
2022-12-25T20:06:38.479Z,27.30
2022-12-25T20:09:07.390Z,27.30
2022-12-25T20:11:34.708Z,28.30
2022-12-25T20:14:01.666Z,28.20
2022-12-25T20:16:28.682Z,25.70
2022-12-25T20:18:56.779Z,27.30
2022-12-25T20:21:24.159Z,28.60
2022-12-25T20:23:51.914Z,31.90
2022-12-25T20:26:20.491Z,31.20
2022-12-25T20:28:50.203Z,30.70
2022-12-25T20:31:19.637Z,31.20
2022-12-25T20:33:46.845Z,33.00
2022-12-25T20:36:13.709Z,35.60
2022-12-25T20:38:40.827Z,68.20
2022-12-25T20:41:29.029Z,96.40
2022-12-25T20:43:56.769Z,73.50
2022-12-25T20:46:25.060Z,68.60
2022-12-25T20:48:53.154Z,61.40
2022-12-25T20:51:22.419Z,52.10
2022-12-25T20:53:49.427Z,50.00
2022-12-25T20:56:17.617Z,47.90
2022-12-25T20:58:44.651Z,47.70
2022-12-25T21:01:13.457Z,46.00
2022-12-25T21:03:40.575Z,44.80
2022-12-25T21:06:07.937Z,45.60
2022-12-25T21:08:35.139Z,40.70
2022-12-25T21:11:02.242Z,39.30
2022-12-25T21:13:33.479Z,34.60
2022-12-25T21:16:00.629Z,34.90
2022-12-25T21:18:28.121Z,32.50
2022-12-25T21:20:56.895Z,31.90
2022-12-25T21:23:24.331Z,31.80
2022-12-25T21:25:51.804Z,26.30
2022-12-25T21:28:18.996Z,21.50
2022-12-25T21:30:45.903Z,18.20
2022-12-25T21:33:31.496Z,19.10
2022-12-25T21:36:09.843Z,22.70
2022-12-25T21:38:38.287Z,24.10
2022-12-25T21:41:12.383Z,23.60
2022-12-25T21:43:43.306Z,24.00
2022-12-25T21:46:13.048Z,24.30
2022-12-25T21:48:44.023Z,25.10
2022-12-25T21:51:47.681Z,25.70
2022-12-25T21:54:18.785Z,25.10
2022-12-25T21:56:47.502Z,24.50
2022-12-25T21:59:19.933Z,23.50
2022-12-25T22:01:48.880Z,24.20
2022-12-25T22:04:16.420Z,21.60
2022-12-25T22:07:03.686Z,19.90
2022-12-25T22:09:30.797Z,20.00
2022-12-25T22:12:17.644Z,20.40
2022-12-25T22:14:56.634Z,21.30
2022-12-25T22:17:45.094Z,22.30
2022-12-25T22:20:19.934Z,22.10
2022-12-25T22:22:47.163Z,20.50
2022-12-25T22:25:14.407Z,18.70
2022-12-25T22:27:42.370Z,19.90
2022-12-25T22:30:14.563Z,20.20
2022-12-25T22:32:41.806Z,21.40
2022-12-25T22:35:09.610Z,20.80
2022-12-25T22:37:38.144Z,20.40
2022-12-25T22:40:09.877Z,20.00
2022-12-25T22:42:36.945Z,20.80
2022-12-25T22:45:04.496Z,18.90
2022-12-25T22:47:31.469Z,19.00
2022-12-25T22:49:58.407Z,19.40
2022-12-25T22:52:25.486Z,19.90
2022-12-25T22:54:52.505Z,21.10
2022-12-25T22:57:19.528Z,21.40
2022-12-25T22:59:48.937Z,21.50
2022-12-25T23:02:16.252Z,23.50
2022-12-25T23:04:45.903Z,23.50
2022-12-25T23:07:14.746Z,24.70
2022-12-25T23:09:42.519Z,22.90
2022-12-25T23:12:30.047Z,21.40
2022-12-25T23:14:59.478Z,22.40
2022-12-25T23:17:45.292Z,19.80
2022-12-25T23:20:32.615Z,20.20
2022-12-25T23:23:18.441Z,21.30
2022-12-25T23:26:07.232Z,24.30
2022-12-25T23:28:53.971Z,27.00
2022-12-25T23:31:22.611Z,28.40
2022-12-25T23:33:49.671Z,28.60
2022-12-25T23:36:16.639Z,27.60
2022-12-25T23:38:43.767Z,24.60
2022-12-25T23:41:10.641Z,25.70
2022-12-25T23:43:37.552Z,25.60
2022-12-25T23:46:04.566Z,26.30
2022-12-25T23:48:31.665Z,27.70
2022-12-25T23:51:03.332Z,25.30
2022-12-25T23:53:31.012Z,26.10
2022-12-25T23:55:57.911Z,24.90
2022-12-25T23:58:25.529Z,23.30
